Aviation Digital Data Service (ADDS)

Output produced by METARs form (2232 UTC 30 March 2017)
found at http://www.aviationweather.gov/adds/metars/
 
TAF WPDL 302141Z 3021/3106 14005KT 9999 SCT025 
     FM310000 28012KT 9999 SCT020